Terminal Aerodrome Forecast
Issued by NWS

Current Version | Previous Version | Text Only | Print | Product List | Glossary Off
Versions: 1 2 3 4 5 6 7 8 9 10 11 12 13 14 15 16 17 18 19 20 21

000
FTUS41 KILN 290409 AAB
TAFLCK
TAF AMD
KLCK 290409Z 2904/2924 02005KT P6SM VCSH SCT040 OVC120
     FM290800 VRB03KT 4SM BR SCT080 BKN250
     FM291400 04006KT P6SM SCT040=

USA.gov is the U.S. government's official web portal to all federal, state and local government web resources and services.